Latest Weather Observations for Esperance Airport

IDW60801

Issued at 6:02 am WST Sunday 5 July 2015 (issued every 30 minutes, with the page automatically refreshed every 10 minutes)

About weather observations | Map of weather stations | Latest weather observations for WA | Other Formats
Station Details ID: 009542 Name: ESPERANCE AERO Lat: -33.68 Lon: 121.83 Height: 142.0 m
Data from the previous 72 hours. | See also: Recent months at Esperance Airport
Date/Time
WST
Temp
°C
App
Temp
°C
Dew
Point
Rel
Hum
%
Delta-T
°C
Wind Press
QNH
hPa
Press
MSL
hPa
Rain
since 9 am
mm
Dir
 
Spd
km/h
Gust
km/h
Spd
kts
Gust
kts
05/06:00am 9.9 6.3 9.8 99 0.1 WNW 19 22 10 12 1018.9 1018.9 0.2
05/05:30am 9.9 6.3 9.8 99 0.1 WNW 19 24 10 13 1018.6 1018.6 0.2
05/05:00am 9.9 6.3 9.8 99 0.1 NW 19 22 10 12 1018.5 1018.5 0.2
05/04:30am 9.8 6.5 9.7 99 0.1 WNW 17 19 9 10 1018.4 1018.4 0.2
05/04:00am 10.1 6.5 9.9 99 0.1 WNW 19 22 10 12 1018.4 1018.4 0.2
05/03:30am 10.4 6.9 10.2 99 0.1 WNW 19 24 10 13 1018.5 1018.5 0.2
05/03:00am 10.5 6.8 10.3 99 0.1 WNW 20 24 11 13 1018.7 1018.7 0.2
05/02:30am 10.9 7.3 10.7 99 0.1 WNW 20 28 11 15 1018.8 1018.8 0.2
05/02:00am 10.9 7.3 10.7 99 0.1 WNW 20 28 11 15 1018.7 1018.7 0.2
05/01:30am 11.2 7.9 11.0 99 0.1 WNW 19 22 10 12 1018.7 1018.7 0.2
05/01:00am 11.9 8.2 11.6 98 0.2 NW 22 30 12 16 1018.7 1018.7 0.2
05/12:30am 11.5 8.3 11.3 99 0.1 NW 19 24 10 13 1018.6 1018.6 0.2
05/12:00am 11.5 8.1 11.3 99 0.1 NW 20 24 11 13 1018.7 1018.7 0.2
 
Date/Time
WST
Temp
°C
App
Temp
°C
Dew
Point
Rel
Hum
%
Delta-T
°C
Wind Press
QNH
hPa
Press
MSL
hPa
Rain
since 9 am
mm
Dir
 
Spd
km/h
Gust
km/h
Spd
kts
Gust
kts
04/11:30pm 11.2 8.7 11.2 100 0.0 NW 15 20 8 11 1018.9 1018.9 0.2
04/11:00pm 10.5 8.6 10.5 100 0.0 NNW 11 15 6 8 1019.0 1019.0 0.2
04/10:30pm 9.8 8.1 9.8 100 0.0 NNW 9 11 5 6 1019.2 1019.2 0.2
04/10:00pm 10.6 9.7 10.6 100 0.0 W 6 9 3 5 1019.4 1019.4 0.2
04/09:30pm 11.3 10.0 11.3 100 0.0 NNE 9 13 5 7 1019.4 1019.4 0.2
04/09:00pm 11.2 9.1 11.2 100 0.0 N 13 15 7 8 1019.5 1019.5 0.2
04/08:30pm 10.6 9.1 10.4 99 0.1 N 9 11 5 6 1019.8 1019.9 0.2
04/08:00pm 11.3 10.3 11.1 99 0.1 N 7 9 4 5 1019.9 1020.0 0.2
04/07:30pm 11.2 11.5 11.0 99 0.1 CALM 0 0 0 0 1020.0 1020.1 0.2
04/07:00pm 12.8 12.9 12.6 99 0.1 SSW 4 6 2 3 1019.9 1020.0 0.2
04/06:30pm 12.5 11.5 12.3 99 0.1 SSW 9 13 5 7 1020.0 1020.1 0.2
04/06:00pm 12.9 13.0 12.7 99 0.1 N 4 9 2 5 1019.8 1019.9 0.2
04/05:30pm 13.7 14.8 13.4 98 0.2 CALM 0 0 0 0 1019.6 1019.7 0.2
04/05:00pm 15.3 16.6 14.0 92 0.7 CALM 0 4 0 2 1019.6 1019.7 0.2
04/04:30pm 15.7 15.3 14.1 90 0.9 SW 9 11 5 6 1019.6 1019.7 0.2
04/04:00pm 16.3 16.3 14.1 87 1.3 SW 7 9 4 5 1019.7 1019.8 0.2
04/03:30pm 16.6 16.7 14.4 87 1.3 W 7 9 4 5 1019.7 1019.8 0.0
04/03:00pm 17.0 15.6 14.5 85 1.4 NW 15 20 8 11 1019.7 1019.8 0.0
04/02:30pm 17.3 16.3 14.6 84 1.6 WNW 13 17 7 9 1019.7 1019.8 0.0
04/02:00pm 17.0 16.0 14.6 86 1.4 WNW 13 17 7 9 1019.7 1019.8 0.0
04/01:30pm 16.8 15.0 14.4 86 1.4 W 17 22 9 12 1020.0 1020.1 0.0
04/01:00pm 16.7 14.7 14.9 89 1.0 WNW 19 22 10 12 1020.3 1020.4 0.0
04/12:30pm 16.5 14.7 15.4 93 0.6 W 19 24 10 13 1020.6 1020.7 0.0
04/12:00pm 16.3 14.3 15.5 95 0.5 WNW 20 24 11 13 1021.1 1021.2 0.0
04/11:30am 15.8 13.8 15.6 99 0.1 WNW 20 24 11 13 1021.4 1021.5 0.0
04/11:00am 15.0 12.8 15.0 100 0.0 WNW 20 24 11 13 1021.9 1022.0 0.0
04/10:30am 14.6 12.5 14.6 100 0.0 NW 19 24 10 13 1022.1 1022.2 0.0
04/10:00am 13.5 12.1 13.5 100 0.0 NW 13 17 7 9 1022.2 1022.3 0.0
04/09:30am 12.9 11.7 12.9 100 0.0 NW 11 13 6 7 1022.2 1022.3 0.0
04/09:00am 12.2 10.4 12.2 100 0.0 WNW 13 17 7 9 1022.1 1022.2 0.2
04/08:58am 12.2 10.4 12.2 100 0.0 WNW 13 17 7 9 1022.1 1022.2 0.2
04/08:30am 11.9 10.8 11.9 100 0.0 NW 9 13 5 7 1021.9 1022.0 0.2
04/08:00am 10.8 9.0 10.8 100 0.0 N 11 13 6 7 1021.8 1021.9 0.2
04/07:30am 10.0 8.0 10.0 100 0.0 N 11 13 6 7 1021.8 1021.9 0.2
04/07:02am 10.0 8.3 10.0 100 0.0 NNW 9 11 5 6 1021.7 1021.8 0.2
04/07:00am 10.0 8.3 10.0 100 0.0 NNW 9 11 5 6 1021.7 1021.8 0.2
04/06:30am 9.9 8.2 9.9 100 0.0 NNW 9 11 5 6 1021.6 1021.7 0.2
04/06:15am 9.5 7.7 9.5 100 0.0 NNW 9 11 5 6 1021.6 1021.7 0.2
04/06:00am 9.2 7.3 9.2 100 0.0 NNW 9 11 5 6 1021.4 1021.5 0.2
04/05:30am 9.7 8.0 9.7 100 0.0 NNW 9 11 5 6 1021.1 1021.2 0.2
04/05:00am 10.1 8.5 10.1 100 0.0 NNW 9 13 5 7 1021.1 1021.2 0.2
04/04:30am 10.4 8.9 10.4 100 0.0 NNW 9 13 5 7 1021.2 1021.3 0.2
04/04:00am 10.7 8.9 10.7 100 0.0 NNW 11 15 6 8 1021.3 1021.4 0.2
04/03:30am 9.7 7.9 9.6 99 0.1 NNW 9 11 5 6 1021.3 1021.4 0.2
04/03:00am 10.2 8.2 10.0 99 0.1 N 11 13 6 7 1021.4 1021.5 0.2
04/02:30am 10.8 8.5 10.6 99 0.1 N 13 15 7 8 1021.3 1021.4 0.2
04/02:00am 10.8 8.5 10.6 99 0.1 N 13 15 7 8 1021.5 1021.6 0.2
04/01:30am 10.8 8.5 10.6 99 0.1 N 13 13 7 7 1021.4 1021.5 0.2
04/01:00am 10.6 9.1 10.4 99 0.1 N 9 11 5 6 1021.4 1021.5 0.2
04/12:30am 11.3 10.0 11.1 99 0.1 N 9 9 5 5 1021.4 1021.5 0.2
04/12:00am 11.6 10.3 11.4 99 0.1 N 9 11 5 6 1021.8 1021.9 0.2
 
Date/Time
WST
Temp
°C
App
Temp
°C
Dew
Point
Rel
Hum
%
Delta-T
°C
Wind Press
QNH
hPa
Press
MSL
hPa
Rain
since 9 am
mm
Dir
 
Spd
km/h
Gust
km/h
Spd
kts
Gust
kts
03/11:30pm 11.1 9.7 10.9 99 0.1 N 9 9 5 5 1021.9 1022.0 0.2
03/11:00pm 11.7 10.5 11.5 99 0.1 N 9 9 5 5 1022.1 1022.2 0.2
03/10:30pm 11.6 10.8 11.6 100 0.0 N 7 9 4 5 1022.2 1022.3 0.2
03/10:00pm 12.4 11.8 12.4 100 0.0 N 7 9 4 5 1022.3 1022.4 0.2
03/09:30pm 11.6 10.0 11.6 100 0.0 N 11 11 6 6 1022.2 1022.3 0.2
03/09:00pm 11.2 10.4 11.0 99 0.1 NNW 6 7 3 4 1022.6 1022.7 0.2
03/08:30pm 12.3 13.0 12.1 99 0.1 CALM 0 0 0 0 1022.3 1022.4 0.2
03/08:00pm 12.7 13.5 12.5 99 0.1 CALM 0 0 0 0 1022.3 1022.4 0.2
03/07:30pm 12.8 13.6 12.6 99 0.1 CALM 0 0 0 0 1022.2 1022.3 0.2
03/07:00pm 13.5 14.5 13.2 98 0.2 CALM 0 0 0 0 1022.2 1022.3 0.2
03/06:30pm 13.9 14.2 13.3 96 0.3 ENE 4 7 2 4 1021.9 1022.0 0.2
03/06:00pm 14.4 14.4 13.6 95 0.4 SE 6 6 3 3 1021.8 1021.9 0.2
03/05:30pm 14.7 14.1 13.4 92 0.7 SSE 9 11 5 6 1021.6 1021.7 0.2
03/05:00pm 15.8 14.9 13.6 87 1.2 S 11 13 6 7 1021.4 1021.5 0.2
03/04:30pm 18.1 17.6 13.8 76 2.5 WNW 9 9 5 5 1021.2 1021.3 0.2
03/04:00pm 19.0 18.4 13.6 71 3.1 WNW 9 13 5 7 1021.1 1021.2 0.2
03/03:30pm 19.4 18.0 13.3 68 3.5 WNW 13 17 7 9 1021.0 1021.1 0.2
03/03:00pm 19.6 18.0 12.8 65 3.8 WNW 13 19 7 10 1020.7 1020.8 0.2
03/02:30pm 19.4 17.1 12.9 66 3.7 WNW 17 20 9 11 1020.7 1020.8 0.2
03/02:00pm 19.3 17.1 13.2 68 3.5 WNW 17 24 9 13 1020.6 1020.7 0.2
03/01:30pm 19.0 16.3 13.4 70 3.2 W 20 24 11 13 1020.9 1021.0 0.2
03/01:00pm 18.9 15.6 12.9 68 3.4 WNW 22 28 12 15 1021.1 1021.2 0.0
03/12:30pm 18.7 15.9 13.1 70 3.2 WNW 20 28 11 15 1021.3 1021.4 0.0
03/12:00pm 18.3 15.2 13.4 73 2.8 WNW 22 28 12 15 1021.7 1021.8 0.0
03/11:30am 18.0 14.9 13.3 74 2.7 WNW 22 28 12 15 1022.2 1022.3 0.0
03/11:00am 17.9 14.4 13.4 75 2.5 WNW 24 30 13 16 1022.5 1022.6 0.0
03/10:30am 17.2 14.4 13.1 77 2.3 WNW 20 26 11 14 1022.8 1022.9 0.0
03/10:00am 16.8 13.8 13.7 82 1.8 NW 22 30 12 16 1023.0 1023.1 0.0
03/09:30am 16.3 14.1 13.4 83 1.6 NNW 17 24 9 13 1023.1 1023.2 0.0
03/09:00am 14.2 11.7 12.4 89 1.0 NNW 17 22 9 12 1023.2 1023.3 3.4
03/08:30am 12.7 10.4 11.8 94 0.5 NNW 15 20 8 11 1023.3 1023.4 3.4
03/08:00am 12.5 9.8 11.6 94 0.5 NNW 17 22 9 12 1023.2 1023.3 3.4
03/07:30am 11.9 9.1 11.4 97 0.3 N 17 20 9 11 1022.9 1023.0 3.4
03/07:00am 11.4 8.5 10.9 97 0.3 N 17 22 9 12 1022.8 1022.9 3.4
03/06:30am 11.9 8.7 11.1 95 0.4 N 19 24 10 13 1022.5 1022.6 3.4
03/06:00am 12.0 8.6 11.4 96 0.3 N 20 26 11 14 1022.5 1022.6 3.4
03/05:30am 12.0 8.3 11.4 96 0.3 N 22 28 12 15 1022.4 1022.5 3.4
03/05:00am 12.0 8.6 11.4 96 0.3 N 20 24 11 13 1022.3 1022.4 3.4
03/04:30am 12.1 8.0 11.5 96 0.3 N 24 30 13 16 1022.4 1022.5 3.4
03/04:00am 12.1 8.0 11.6 97 0.3 N 24 32 13 17 1022.5 1022.6 3.4
03/03:30am 12.2 7.4 11.7 97 0.3 N 28 35 15 19 1022.6 1022.7 3.4
03/03:00am 12.2 8.2 11.7 97 0.3 N 24 32 13 17 1022.7 1022.8 3.4
03/02:30am 12.2 8.2 11.7 97 0.3 N 24 32 13 17 1023.0 1023.1 3.4
03/02:00am 12.2 7.4 11.7 97 0.3 N 28 33 15 18 1023.2 1023.3 3.4
03/01:30am 12.2 7.4 11.6 96 0.3 N 28 35 15 19 1023.5 1023.6 3.4
03/01:00am 12.2 7.8 11.7 97 0.3 N 26 35 14 19 1023.7 1023.8 3.4
03/12:30am 12.1 8.0 11.6 97 0.3 N 24 32 13 17 1023.9 1023.9 3.4
03/12:00am 11.9 7.5 11.6 98 0.2 NNE 26 32 14 17 1024.2 1024.2 3.4
 
Date/Time
WST
Temp
°C
App
Temp
°C
Dew
Point
Rel
Hum
%
Delta-T
°C
Wind Press
QNH
hPa
Press
MSL
hPa
Rain
since 9 am
mm
Dir
 
Spd
km/h
Gust
km/h
Spd
kts
Gust
kts
02/11:30pm 11.8 8.1 11.6 99 0.1 NNE 22 32 12 17 1024.6 1024.6 3.2
02/11:00pm 12.1 8.5 11.9 99 0.1 NNE 22 30 12 16 1024.9 1024.9 3.0
02/10:30pm 12.0 8.8 11.8 99 0.1 N 20 26 11 14 1025.0 1025.0 2.4
02/10:00pm 12.0 8.8 11.8 99 0.1 N 20 24 11 13 1025.1 1025.1 2.2
02/09:30pm 12.2 8.6 12.0 99 0.1 N 22 26 12 14 1025.3 1025.3 2.0
02/09:00pm 12.1 8.9 11.8 98 0.2 N 20 28 11 15 1025.5 1025.6 1.6
02/08:30pm 12.3 8.7 11.8 97 0.3 N 22 28 12 15 1025.4 1025.4 1.6
02/08:00pm 12.5 8.2 12.0 97 0.3 N 26 32 14 17 1025.4 1025.4 1.2
02/07:30pm 12.5 8.6 12.0 97 0.3 N 24 28 13 15 1025.3 1025.3 1.2
02/07:00pm 12.8 9.7 12.2 96 0.3 NNE 20 32 11 17 1025.1 1025.1 1.2
02/06:30pm 13.5 9.1 11.6 88 1.0 N 26 33 14 18 1025.0 1025.0 1.0
02/06:00pm 13.8 9.3 11.3 85 1.3 N 26 32 14 17 1024.7 1024.7 1.0
02/05:30pm 13.2 9.1 11.6 90 0.9 NNE 24 33 13 18 1024.4 1024.4 1.0
02/05:00pm 13.7 10.3 11.4 86 1.2 N 20 24 11 13 1024.5 1024.5 0.8
02/04:30pm 13.2 11.0 12.1 93 0.6 NNE 15 20 8 11 1024.7 1024.7 0.6
02/04:00pm 13.2 10.0 11.9 92 0.7 NNE 20 28 11 15 1024.6 1024.6 0.6
02/03:30pm 13.2 9.6 11.9 92 0.7 NNE 22 32 12 17 1024.7 1024.7 0.2
02/03:00pm 13.2 9.2 11.8 91 0.7 N 24 32 13 17 1025.2 1025.2 0.2
02/02:30pm 13.6 9.5 11.3 86 1.2 N 24 30 13 16 1025.0 1025.0 0.0
02/02:00pm 14.9 10.5 10.3 74 2.4 NNW 24 32 13 17 1025.5 1025.6 0.0
02/01:30pm 15.4 11.7 10.0 70 2.8 NNW 20 28 11 15 1025.8 1025.9 0.0
02/01:00pm 16.1 13.7 10.0 67 3.2 NW 13 20 7 11 1025.9 1026.0 0.0
02/12:30pm 16.3 13.3 10.6 69 3.0 NW 17 22 9 12 1026.1 1026.2 0.0
02/12:00pm 16.7 15.5 10.3 66 3.4 NW 7 11 4 6 1025.9 1026.0 0.0
02/11:30am 16.3 14.9 9.7 65 3.5 NW 7 9 4 5 1026.0 1026.1 0.0
02/11:00am 16.0 13.8 9.4 65 3.4 NW 11 13 6 7 1026.7 1026.8 0.0
02/10:30am 16.0 13.8 9.2 64 3.5 NW 11 15 6 8 1026.8 1026.9 0.0
02/10:00am 15.9 12.3 8.2 60 3.9 NW 17 20 9 11 1027.0 1027.1 0.0
02/09:30am 15.5 12.6 8.0 61 3.8 N 13 17 7 9 1026.8 1026.9 0.0
02/09:00am 14.3 10.9 7.6 64 3.3 NNW 15 19 8 10 1026.7 1026.8 0.0
02/08:30am 14.2 9.9 6.8 61 3.6 NNW 19 26 10 14 1026.7 1026.8 0.0
02/08:00am 13.3 8.8 6.9 65 3.1 NNW 20 24 11 13 1026.5 1026.6 0.0
02/07:30am 13.2 8.7 6.8 65 3.1 N 20 26 11 14 1026.1 1026.2 0.0
02/07:00am 13.3 8.3 6.4 63 3.3 N 22 28 12 15 1025.7 1025.8 0.0
02/06:30am 13.3 7.9 6.4 63 3.3 N 24 30 13 16 1025.5 1025.6 0.0

Other Formats:

Comma delimited format used in spreadsheet applications
http://www.bom.gov.au/fwo/IDW60801/IDW60801.95638.axf

JavaScript Object Notation format (JSON) in row-major order
http://www.bom.gov.au/fwo/IDW60801/IDW60801.95638.json